createdAt,value
2023-05-19T00:00:14.657Z,102111.50
2023-05-19T00:02:46.446Z,102104.47
2023-05-19T00:05:18.506Z,102116.03
2023-05-19T00:07:52.130Z,102116.94
2023-05-19T00:10:23.818Z,102114.31
2023-05-19T00:12:55.507Z,102111.63
2023-05-19T00:15:27.185Z,102120.53
2023-05-19T00:17:58.799Z,102119.63
2023-05-19T00:20:30.427Z,102104.56
2023-05-19T00:23:02.004Z,102096.53
2023-05-19T00:25:33.393Z,102109.03
2023-05-19T00:28:04.804Z,102094.81
2023-05-19T00:30:36.115Z,102109.88
2023-05-19T00:33:07.484Z,102108.94
2023-05-19T00:35:40.552Z,102108.91
2023-05-19T00:38:11.862Z,102107.94
2023-05-19T00:40:43.356Z,102084.88
2023-05-19T00:43:14.732Z,102084.84
2023-05-19T00:45:46.861Z,102081.22
2023-05-19T00:48:18.603Z,102065.22
2023-05-19T00:50:50.990Z,102063.34
2023-05-19T00:53:23.143Z,102096.16
2023-05-19T00:55:54.777Z,102093.44
2023-05-19T00:58:30.100Z,102080.06
2023-05-19T01:01:03.527Z,102089.88
2023-05-19T01:03:36.012Z,102070.31
2023-05-19T01:06:07.844Z,102083.66
2023-05-19T01:08:39.552Z,102061.38
2023-05-19T01:11:11.018Z,102092.47
2023-05-19T01:13:43.749Z,102077.31
2023-05-19T01:16:37.374Z,102096.84
2023-05-19T01:19:38.967Z,102094.16
2023-05-19T01:22:36.912Z,102067.44
2023-05-19T01:25:43.505Z,102090.56
2023-05-19T01:28:14.765Z,102093.16
2023-05-19T01:30:52.413Z,102094.03
2023-05-19T01:33:24.568Z,102086.97
2023-05-19T01:35:57.426Z,102101.06
2023-05-19T01:38:29.447Z,102092.28
2023-05-19T01:41:02.926Z,102075.41
2023-05-19T01:43:35.117Z,102079.81
2023-05-19T01:46:06.964Z,102092.19
2023-05-19T01:48:38.868Z,102095.75
2023-05-19T01:51:10.463Z,102081.53
2023-05-19T01:53:41.824Z,102103.66
2023-05-19T01:56:16.684Z,102104.50
2023-05-19T01:58:56.785Z,102105.31
2023-05-19T02:01:41.153Z,102083.94
2023-05-19T02:04:23.169Z,102114.91
2023-05-19T02:07:21.423Z,102080.25
2023-05-19T02:10:06.222Z,102089.19
2023-05-19T02:12:40.629Z,102109.56
2023-05-19T02:15:16.418Z,102090.13
2023-05-19T02:17:50.640Z,102083.03
2023-05-19T02:20:22.285Z,102104.38
2023-05-19T02:22:53.721Z,102092.88
2023-05-19T02:25:25.152Z,102101.84
2023-05-19T02:27:58.164Z,102072.63
2023-05-19T02:30:31.682Z,102079.81
2023-05-19T02:33:06.266Z,102093.19
2023-05-19T02:35:37.683Z,102086.19
2023-05-19T02:38:09.039Z,102080.94
2023-05-19T02:40:40.386Z,102040.09
2023-05-19T02:43:11.935Z,102058.84
2023-05-19T02:46:12.590Z,102083.78
2023-05-19T02:48:43.888Z,102084.66
2023-05-19T02:51:26.243Z,102080.28
2023-05-19T02:53:57.627Z,102090.91
2023-05-19T02:56:29.014Z,102063.47
2023-05-19T02:59:00.811Z,102069.69
2023-05-19T03:01:33.689Z,102070.63
2023-05-19T03:04:05.275Z,102078.66
2023-05-19T03:06:37.639Z,102063.59
2023-05-19T03:09:09.023Z,102051.97
2023-05-19T03:11:40.459Z,102080.50
2023-05-19T03:14:14.533Z,102073.31
2023-05-19T03:16:45.986Z,102079.63
2023-05-19T03:19:18.121Z,102084.91
2023-05-19T03:21:49.706Z,102076.94
2023-05-19T03:24:21.038Z,102051.22
2023-05-19T03:26:52.423Z,102074.34
2023-05-19T03:29:23.764Z,102065.53
2023-05-19T03:31:55.376Z,102063.72
2023-05-19T03:34:26.719Z,102063.72
2023-05-19T03:36:58.031Z,102069.97
2023-05-19T03:39:29.351Z,102053.94
2023-05-19T03:42:00.856Z,102078.81
2023-05-19T03:44:32.244Z,102072.66
2023-05-19T03:47:03.728Z,102078.84
2023-05-19T03:49:35.082Z,102068.28
2023-05-19T03:52:06.500Z,102075.41
2023-05-19T03:54:39.611Z,102075.47
2023-05-19T03:57:11.191Z,102063.94
2023-05-19T03:59:43.860Z,102063.13
2023-05-19T04:02:16.564Z,102080.03
2023-05-19T04:04:48.248Z,102071.22
2023-05-19T04:07:19.608Z,102096.06
2023-05-19T04:09:50.997Z,102094.38
2023-05-19T04:12:22.342Z,102093.56
2023-05-19T04:14:53.824Z,102075.81
2023-05-19T04:17:29.205Z,102078.56
2023-05-19T04:20:01.064Z,102104.25
2023-05-19T04:22:32.745Z,102102.53
2023-05-19T04:25:04.911Z,102078.56
2023-05-19T04:27:39.460Z,102091.94
2023-05-19T04:30:11.972Z,102095.50
2023-05-19T04:32:43.307Z,102097.31
2023-05-19T04:35:17.340Z,102087.56
2023-05-19T04:37:48.645Z,102081.41
2023-05-19T04:40:21.990Z,102092.06
2023-05-19T04:42:53.996Z,102090.22
2023-05-19T04:45:26.056Z,102089.44
2023-05-19T04:47:58.026Z,102083.22
2023-05-19T04:50:31.068Z,102100.13
2023-05-19T04:53:02.594Z,102095.72
2023-05-19T04:55:34.196Z,102085.09
2023-05-19T04:58:06.182Z,102071.88
2023-05-19T05:00:37.528Z,102090.59
2023-05-19T05:03:08.954Z,102094.19
2023-05-19T05:05:40.360Z,102099.63
2023-05-19T05:08:11.943Z,102104.13
2023-05-19T05:10:43.271Z,102103.31
2023-05-19T05:13:14.850Z,102087.44
2023-05-19T05:15:46.821Z,102091.06
2023-05-19T05:18:18.549Z,102092.00
2023-05-19T05:20:50.478Z,102085.84
2023-05-19T05:23:22.082Z,102101.03
2023-05-19T05:25:53.767Z,102107.25
2023-05-19T05:28:25.080Z,102097.53
2023-05-19T05:30:57.771Z,102085.16
2023-05-19T05:33:29.367Z,102108.25
2023-05-19T05:36:00.826Z,102096.78
2023-05-19T05:38:32.169Z,102082.59
2023-05-19T05:41:03.730Z,102114.53
2023-05-19T05:43:35.045Z,102109.22
2023-05-19T05:46:06.410Z,102113.66
2023-05-19T05:48:38.118Z,102107.44
2023-05-19T05:51:09.797Z,102103.94
2023-05-19T05:53:43.272Z,102095.06
2023-05-19T05:56:14.845Z,102107.53
2023-05-19T05:58:46.246Z,102099.59
2023-05-19T06:01:17.814Z,102103.13
2023-05-19T06:03:49.265Z,102110.22
2023-05-19T06:06:20.743Z,102117.31
2023-05-19T06:08:52.065Z,102121.72
2023-05-19T06:11:23.479Z,102113.75
2023-05-19T06:13:54.823Z,102108.44
2023-05-19T06:16:26.225Z,102109.31
2023-05-19T06:18:58.793Z,102104.00
2023-05-19T06:21:30.230Z,102118.19
2023-05-19T06:24:01.551Z,102104.91
2023-05-19T06:26:32.951Z,102112.91
2023-05-19T06:29:04.308Z,102114.69
2023-05-19T06:31:35.777Z,102086.31
2023-05-19T06:34:07.116Z,102102.25
2023-05-19T06:36:38.432Z,102109.31
2023-05-19T06:39:09.735Z,102110.06
2023-05-19T06:41:41.059Z,102091.28
2023-05-19T06:44:12.390Z,102104.50
2023-05-19T06:46:44.310Z,102112.41
2023-05-19T06:49:15.956Z,102118.53
2023-05-19T06:51:47.746Z,102112.28
2023-05-19T06:54:19.112Z,102098.09
2023-05-19T06:56:50.414Z,102103.47
2023-05-19T06:59:22.977Z,102093.69
2023-05-19T07:01:54.292Z,102113.97
2023-05-19T07:04:25.706Z,102095.28
2023-05-19T07:06:57.114Z,102119.94
2023-05-19T07:09:28.603Z,102100.22
2023-05-19T07:12:00.022Z,102096.41
2023-05-19T07:14:31.495Z,102113.03
2023-05-19T07:17:03.035Z,102121.69
2023-05-19T07:19:34.703Z,102105.75
2023-05-19T07:22:06.106Z,102119.88
2023-05-19T07:24:37.535Z,102117.16
2023-05-19T07:27:09.785Z,102127.53
2023-05-19T07:29:41.105Z,102102.47
2023-05-19T07:32:12.466Z,102115.53
2023-05-19T07:34:43.814Z,102114.28
2023-05-19T07:37:16.569Z,102114.09
2023-05-19T07:39:47.884Z,102107.47
2023-05-19T07:42:19.310Z,102113.22
2023-05-19T07:44:50.652Z,102102.69
2023-05-19T07:47:22.026Z,102124.13
2023-05-19T07:49:53.373Z,102116.16
2023-05-19T07:52:24.826Z,102121.31
2023-05-19T07:54:56.248Z,102074.66
2023-05-19T07:57:27.593Z,102113.59
2023-05-19T07:59:58.936Z,102106.25
2023-05-19T08:02:30.804Z,102112.16
2023-05-19T08:05:02.283Z,102094.00
2023-05-19T08:07:34.028Z,102099.03
2023-05-19T08:10:06.136Z,102115.41
2023-05-19T08:12:37.488Z,102101.81
2023-05-19T08:15:11.483Z,102113.84
2023-05-19T08:17:42.834Z,102111.94
2023-05-19T08:20:15.240Z,102098.69
2023-05-19T08:22:46.562Z,102114.09
2023-05-19T08:25:19.707Z,102111.53
2023-05-19T08:27:51.259Z,102110.78
2023-05-19T08:30:23.296Z,102105.72
2023-05-19T08:32:54.751Z,102109.28
2023-05-19T08:35:26.181Z,102110.31
2023-05-19T08:37:57.513Z,102109.78
2023-05-19T08:40:31.602Z,102099.69
2023-05-19T08:43:03.591Z,102105.59
2023-05-19T08:45:35.537Z,102094.78
2023-05-19T08:48:07.770Z,102095.97
2023-05-19T08:50:41.161Z,102081.91
2023-05-19T08:53:32.425Z,102094.56
2023-05-19T08:56:11.226Z,102085.69
2023-05-19T08:58:44.024Z,102086.13
2023-05-19T09:01:19.211Z,102075.34
2023-05-19T09:03:51.905Z,102072.03
2023-05-19T09:06:23.828Z,102080.06
2023-05-19T09:08:55.312Z,102069.97
2023-05-19T09:11:27.074Z,102081.19
2023-05-19T09:13:58.387Z,102079.72
2023-05-19T09:16:30.840Z,102065.78
2023-05-19T09:19:02.440Z,102063.19
2023-05-19T09:21:33.952Z,102066.34
2023-05-19T09:24:06.612Z,102078.72
2023-05-19T09:26:40.014Z,102069.09
2023-05-19T09:29:12.984Z,102068.50
2023-05-19T09:31:55.903Z,102065.28
2023-05-19T09:34:27.603Z,102057.63
2023-05-19T09:36:59.864Z,102067.31
2023-05-19T09:39:32.652Z,102064.38
2023-05-19T09:42:05.118Z,102046.69
2023-05-19T09:44:36.844Z,102047.84
2023-05-19T09:47:09.920Z,102049.06
2023-05-19T09:49:47.286Z,102049.84
2023-05-19T09:52:19.100Z,102053.50
2023-05-19T09:54:51.832Z,102048.13
2023-05-19T09:57:29.376Z,102041.50
2023-05-19T10:00:08.523Z,102046.41
2023-05-19T10:02:44.329Z,102042.63
2023-05-19T10:05:17.030Z,102040.50
2023-05-19T10:07:54.517Z,102025.97
2023-05-19T10:10:27.272Z,102024.69
2023-05-19T10:12:59.541Z,102030.81
2023-05-19T10:15:31.453Z,102029.31
2023-05-19T10:18:03.732Z,102021.28
2023-05-19T10:20:35.505Z,102023.38
2023-05-19T10:23:06.882Z,102027.06
2023-05-19T10:25:38.991Z,102018.22
2023-05-19T10:28:17.142Z,102009.97
2023-05-19T10:30:50.811Z,102010.59
2023-05-19T10:33:41.191Z,101996.13
2023-05-19T10:36:39.275Z,102001.03
2023-05-19T10:39:17.376Z,101984.16
2023-05-19T10:42:00.794Z,102003.06
2023-05-19T10:45:13.285Z,101995.41
2023-05-19T10:47:44.936Z,102003.97
2023-05-19T10:50:17.323Z,102003.69
2023-05-19T10:52:56.522Z,102017.41
2023-05-19T10:55:56.039Z,101992.38
2023-05-19T10:58:46.056Z,101982.88
2023-05-19T11:01:22.015Z,101987.78
2023-05-19T11:03:59.121Z,101991.94
2023-05-19T11:06:32.753Z,101995.41
2023-05-19T11:09:20.942Z,101994.88
2023-05-19T11:11:56.801Z,101991.50
2023-05-19T11:14:28.821Z,101985.28
2023-05-19T11:17:00.644Z,101994.38
2023-05-19T11:19:34.833Z,101995.97
2023-05-19T11:22:13.378Z,101986.56
2023-05-19T11:24:50.086Z,101988.06
2023-05-19T11:27:25.995Z,101984.59
2023-05-19T11:29:59.164Z,101977.81
2023-05-19T11:32:33.522Z,101957.50
2023-05-19T11:35:05.617Z,101976.84
2023-05-19T11:37:37.425Z,101974.63
2023-05-19T11:40:09.278Z,101962.03
2023-05-19T11:42:40.753Z,101970.75
2023-05-19T11:45:12.071Z,101962.72
2023-05-19T11:48:01.458Z,101980.22
2023-05-19T11:50:36.774Z,101979.84
2023-05-19T11:53:08.330Z,101975.41
2023-05-19T11:55:47.030Z,101971.31
2023-05-19T11:58:26.238Z,101960.09
2023-05-19T12:00:57.613Z,101958.69
2023-05-19T12:03:29.527Z,101978.63
2023-05-19T12:06:03.561Z,101973.59
2023-05-19T12:08:35.543Z,101954.47
2023-05-19T12:11:07.245Z,101958.78
2023-05-19T12:13:38.610Z,101966.84
2023-05-19T12:16:10.264Z,101965.47
2023-05-19T12:18:42.148Z,101959.22
2023-05-19T12:21:13.730Z,101948.81
2023-05-19T12:23:45.107Z,101954.19
2023-05-19T12:26:17.875Z,101953.84
2023-05-19T12:28:51.051Z,101930.00
2023-05-19T12:31:25.514Z,101954.06
2023-05-19T12:33:56.952Z,101941.22
2023-05-19T12:36:29.075Z,101945.28
2023-05-19T12:39:00.679Z,101923.13
2023-05-19T12:41:32.054Z,101947.13
2023-05-19T12:44:14.412Z,101940.28
2023-05-19T12:46:46.047Z,101953.94
2023-05-19T12:49:17.416Z,101950.47
2023-05-19T12:51:54.732Z,101935.66
2023-05-19T12:54:26.311Z,101954.16
2023-05-19T12:56:58.542Z,101937.97
2023-05-19T12:59:38.760Z,101941.22
2023-05-19T13:02:10.615Z,101921.78
2023-05-19T13:04:42.325Z,101923.09
2023-05-19T13:07:13.656Z,101910.50
2023-05-19T13:09:45.012Z,101910.75
2023-05-19T13:12:16.405Z,101911.41
2023-05-19T13:14:47.739Z,101924.72
2023-05-19T13:17:20.478Z,101915.72
2023-05-19T13:19:52.236Z,101927.34
2023-05-19T13:22:23.607Z,101918.22
2023-05-19T13:24:58.669Z,101921.78
2023-05-19T13:27:30.007Z,101915.13
2023-05-19T13:30:01.833Z,101915.00
2023-05-19T13:32:33.404Z,101913.91
2023-05-19T13:35:05.737Z,101917.25
2023-05-19T13:37:37.245Z,101929.06
2023-05-19T13:40:09.419Z,101930.81
2023-05-19T13:42:41.054Z,101917.31
2023-05-19T13:45:12.535Z,101918.91
2023-05-19T13:47:43.959Z,101905.59
2023-05-19T13:50:15.370Z,101898.50
2023-05-19T13:52:47.229Z,101913.44
2023-05-19T13:55:18.939Z,101901.97
2023-05-19T13:57:50.770Z,101919.47
2023-05-19T14:00:22.222Z,101902.66
2023-05-19T14:02:53.683Z,101914.53
2023-05-19T14:05:25.100Z,101912.19
2023-05-19T14:07:56.885Z,101896.19
2023-05-19T14:10:28.221Z,101911.09
2023-05-19T14:15:37.426Z,101903.41
2023-05-19T14:18:08.894Z,101907.72
2023-05-19T14:20:40.388Z,101910.34
2023-05-19T14:23:11.808Z,101906.38
2023-05-19T14:25:43.188Z,101860.13
2023-05-19T14:28:14.503Z,101888.81
2023-05-19T14:30:45.880Z,101890.97
2023-05-19T14:33:17.580Z,101891.31
2023-05-19T14:35:48.982Z,101899.00
2023-05-19T14:38:21.575Z,101891.31
2023-05-19T14:40:52.992Z,101889.19
2023-05-19T14:43:24.584Z,101889.13
2023-05-19T14:45:56.774Z,101892.03
2023-05-19T14:48:28.157Z,101882.69
2023-05-19T14:50:59.499Z,101910.69
2023-05-19T14:53:31.182Z,101915.34
2023-05-19T14:58:33.918Z,101901.13
2023-05-19T15:01:05.508Z,101912.88
2023-05-19T15:03:36.909Z,101906.94
2023-05-19T15:06:11.590Z,101896.91
2023-05-19T15:08:42.964Z,101905.13
2023-05-19T15:11:14.379Z,101898.09
2023-05-19T15:13:45.722Z,101909.44
2023-05-19T15:16:18.344Z,101906.00
2023-05-19T15:18:51.486Z,101910.25
2023-05-19T15:21:22.853Z,101884.47
2023-05-19T15:23:54.178Z,101902.53
2023-05-19T15:26:27.615Z,101907.41
2023-05-19T15:29:00.940Z,101909.91
2023-05-19T15:31:32.359Z,101900.44
2023-05-19T15:34:03.847Z,101902.31
2023-05-19T15:36:35.483Z,101900.91
2023-05-19T15:39:06.948Z,101891.06
2023-05-19T15:41:38.323Z,101888.53
2023-05-19T15:44:09.698Z,101875.28
2023-05-19T15:46:41.168Z,101863.53
2023-05-19T15:49:12.821Z,101880.97
2023-05-19T15:51:45.012Z,101886.19
2023-05-19T15:54:16.392Z,101877.47
2023-05-19T15:56:47.679Z,101876.41
2023-05-19T15:59:18.971Z,101888.41
2023-05-19T16:01:52.989Z,101886.53
2023-05-19T16:04:24.650Z,101882.81
2023-05-19T16:06:56.223Z,101872.94
2023-05-19T16:09:27.549Z,101880.88
2023-05-19T16:11:58.920Z,101867.13
2023-05-19T16:14:33.230Z,101876.88
2023-05-19T16:17:10.810Z,101869.75
2023-05-19T16:19:42.181Z,101867.38
2023-05-19T16:22:13.650Z,101841.09
2023-05-19T16:24:45.018Z,101852.69
2023-05-19T16:27:16.400Z,101859.50
2023-05-19T16:29:47.698Z,101860.06
2023-05-19T16:32:19.080Z,101864.00
2023-05-19T16:34:50.408Z,101863.59
2023-05-19T16:37:21.768Z,101861.53
2023-05-19T16:39:53.078Z,101865.09
2023-05-19T16:42:24.437Z,101853.28
2023-05-19T16:44:55.845Z,101873.47
2023-05-19T16:47:27.276Z,101866.88
2023-05-19T16:49:58.775Z,101859.19
2023-05-19T16:52:30.224Z,101861.75
2023-05-19T16:55:01.656Z,101841.59
2023-05-19T16:57:33.141Z,101863.63
2023-05-19T17:00:04.883Z,101862.69
2023-05-19T17:02:36.380Z,101856.69
2023-05-19T17:05:08.216Z,101867.06
2023-05-19T17:07:39.578Z,101854.06
2023-05-19T17:10:11.048Z,101852.81
2023-05-19T17:12:42.370Z,101844.31
2023-05-19T17:15:13.766Z,101845.31
2023-05-19T17:17:45.086Z,101838.38
2023-05-19T17:20:16.710Z,101863.19
2023-05-19T17:22:48.056Z,101858.22
2023-05-19T17:25:19.451Z,101862.16
2023-05-19T17:27:52.265Z,101843.88
2023-05-19T17:30:23.674Z,101868.13
2023-05-19T17:32:55.488Z,101855.03
2023-05-19T17:35:28.421Z,101851.00
2023-05-19T17:38:00.656Z,101873.50
2023-05-19T17:40:33.094Z,101856.00
2023-05-19T17:43:05.903Z,101872.94
2023-05-19T17:45:37.316Z,101873.97
2023-05-19T17:48:08.888Z,101873.25
2023-05-19T17:50:40.445Z,101880.72
2023-05-19T17:53:12.069Z,101873.84
2023-05-19T17:55:50.465Z,101858.16
2023-05-19T17:58:22.137Z,101879.38
2023-05-19T18:00:54.310Z,101879.53
2023-05-19T18:03:26.116Z,101864.72
2023-05-19T18:05:58.638Z,101879.78
2023-05-19T18:08:31.108Z,101868.41
2023-05-19T18:11:02.761Z,101860.47
2023-05-19T18:13:34.054Z,101876.56
2023-05-19T18:16:05.907Z,101871.38
2023-05-19T18:18:39.955Z,101882.94
2023-05-19T18:21:14.224Z,101860.25
2023-05-19T18:23:45.985Z,101870.06
2023-05-19T18:26:17.385Z,101887.69
2023-05-19T18:28:48.678Z,101886.00
2023-05-19T18:31:20.342Z,101882.53
2023-05-19T18:33:51.755Z,101888.13
2023-05-19T18:36:23.348Z,101883.88
2023-05-19T18:38:55.109Z,101892.97
2023-05-19T18:41:33.665Z,101875.41
2023-05-19T18:44:07.814Z,101873.88
2023-05-19T18:46:39.208Z,101879.31
2023-05-19T18:49:11.801Z,101890.97
2023-05-19T18:51:43.413Z,101886.66
2023-05-19T18:54:14.782Z,101878.03
2023-05-19T18:56:46.097Z,101892.25
2023-05-19T18:59:17.510Z,101881.66
2023-05-19T19:01:48.960Z,101890.69
2023-05-19T19:04:21.726Z,101892.56
2023-05-19T19:06:53.209Z,101891.78
2023-05-19T19:09:24.546Z,101895.44
2023-05-19T19:11:55.878Z,101896.41
2023-05-19T19:14:27.230Z,101888.50
2023-05-19T19:16:58.646Z,101890.31
2023-05-19T19:19:30.514Z,101898.34
2023-05-19T19:22:02.082Z,101888.78
2023-05-19T19:24:33.413Z,101908.31
2023-05-19T19:27:05.289Z,101904.78
2023-05-19T19:29:36.717Z,101889.03
2023-05-19T19:32:08.187Z,101895.28
2023-05-19T19:34:39.572Z,101911.25
2023-05-19T19:37:11.269Z,101914.81
2023-05-19T19:39:42.654Z,101908.78
2023-05-19T19:42:14.060Z,101914.94
2023-05-19T19:44:45.528Z,101900.97
2023-05-19T19:47:16.906Z,101917.66
2023-05-19T19:49:49.125Z,101922.16
2023-05-19T19:52:20.566Z,101930.22
2023-05-19T19:54:51.878Z,101910.84
2023-05-19T19:57:24.252Z,101924.97
2023-05-19T19:59:57.332Z,101916.25
2023-05-19T20:02:28.749Z,101919.84
2023-05-19T20:05:01.798Z,101926.88
2023-05-19T20:07:33.162Z,101941.19
2023-05-19T20:10:05.128Z,101921.81
2023-05-19T20:12:36.542Z,101934.28
2023-05-19T20:15:08.433Z,101925.44
2023-05-19T20:17:39.789Z,101939.63
2023-05-19T20:20:12.200Z,101944.13
2023-05-19T20:22:46.528Z,101932.69
2023-05-19T20:25:17.895Z,101890.41
2023-05-19T20:27:49.295Z,101949.66
2023-05-19T20:30:20.720Z,101933.88
2023-05-19T20:32:52.144Z,101955.13
2023-05-19T20:35:23.786Z,101930.44
2023-05-19T20:37:55.209Z,101946.44
2023-05-19T20:40:26.604Z,101958.88
2023-05-19T20:42:58.049Z,101956.25
2023-05-19T20:45:29.380Z,101933.38
2023-05-19T20:48:02.657Z,101937.81
2023-05-19T20:50:34.261Z,101938.81
2023-05-19T20:53:07.262Z,101951.19
2023-05-19T20:55:38.993Z,101926.53
2023-05-19T20:58:10.707Z,101947.84
2023-05-19T21:00:42.021Z,101953.13
2023-05-19T21:03:13.408Z,101961.19
2023-05-19T21:05:44.758Z,101955.03
2023-05-19T21:08:16.141Z,101969.28
2023-05-19T21:10:47.612Z,101958.66
2023-05-19T21:13:18.985Z,101971.13
2023-05-19T21:15:50.486Z,101965.91
2023-05-19T21:18:21.791Z,101974.75
2023-05-19T21:20:53.119Z,101981.94
2023-05-19T21:23:24.477Z,101972.22
2023-05-19T21:25:58.049Z,101970.50
2023-05-19T21:28:29.535Z,101958.25
2023-05-19T21:31:00.962Z,101984.00
2023-05-19T21:33:32.444Z,101969.88
2023-05-19T21:36:03.904Z,101971.72
2023-05-19T21:38:35.250Z,101974.50
2023-05-19T21:41:06.583Z,101973.69
2023-05-19T21:43:38.041Z,101951.63
2023-05-19T21:46:09.854Z,101959.66
2023-05-19T21:48:41.280Z,101964.13
2023-05-19T21:51:12.688Z,101979.28
2023-05-19T21:53:44.050Z,101979.34
2023-05-19T21:56:16.458Z,101952.00
2023-05-19T21:58:47.901Z,101974.13
2023-05-19T22:01:19.313Z,101982.13
2023-05-19T22:03:50.716Z,101969.81
2023-05-19T22:06:22.197Z,101969.84
2023-05-19T22:08:53.507Z,101962.78
2023-05-19T22:11:24.823Z,101989.38
2023-05-19T22:13:56.290Z,101992.06
2023-05-19T22:16:27.708Z,101994.81
2023-05-19T22:18:59.928Z,101941.69
2023-05-19T22:21:31.895Z,101984.19
2023-05-19T22:24:03.392Z,101986.00
2023-05-19T22:26:35.713Z,101965.66
2023-05-19T22:29:07.046Z,101992.25
2023-05-19T22:31:38.372Z,101988.72
2023-05-19T22:34:12.397Z,101984.28
2023-05-19T22:36:45.886Z,101975.47
2023-05-19T22:39:17.203Z,101989.66
2023-05-19T22:41:48.542Z,101981.69
2023-05-19T22:44:20.243Z,101984.34
2023-05-19T22:46:51.604Z,101976.41
2023-05-19T22:49:23.026Z,101967.53
2023-05-19T22:51:54.411Z,101982.59
2023-05-19T22:54:25.797Z,101980.81
2023-05-19T22:56:57.259Z,101987.03
2023-05-19T22:59:29.021Z,101990.56
2023-05-19T23:02:00.415Z,101988.81
2023-05-19T23:04:32.761Z,101991.47
2023-05-19T23:07:04.390Z,101978.22
2023-05-19T23:09:35.792Z,101994.13
2023-05-19T23:12:07.254Z,101980.00
2023-05-19T23:14:38.545Z,101997.72
2023-05-19T23:17:10.030Z,101995.94
2023-05-19T23:19:41.517Z,101997.72
2023-05-19T23:22:12.843Z,102003.91
2023-05-19T23:24:44.179Z,102006.56
2023-05-19T23:27:15.516Z,101995.94
2023-05-19T23:29:50.858Z,101970.25
2023-05-19T23:32:22.190Z,101998.59
2023-05-19T23:34:53.740Z,102002.13
2023-05-19T23:37:25.038Z,102003.00
2023-05-19T23:39:56.350Z,101995.03
2023-05-19T23:42:27.785Z,101989.72
2023-05-19T23:44:59.241Z,101996.81
2023-05-19T23:47:30.706Z,101984.38
2023-05-19T23:50:02.076Z,102003.00
2023-05-19T23:52:33.385Z,101984.38
2023-05-19T23:55:05.782Z,101988.81
2023-05-19T23:57:37.083Z,102000.31
